sensor_id;sensor_type;location;lat;lon;timestamp;temperature;humidity
47857;DHT22;33618;49.972;8.242;2023-06-10T00:01:44;22.70;66.60
47857;DHT22;33618;49.972;8.242;2023-06-10T00:04:15;22.70;66.80
47857;DHT22;33618;49.972;8.242;2023-06-10T00:06:44;22.60;67.00
47857;DHT22;33618;49.972;8.242;2023-06-10T00:09:11;22.60;66.90
47857;DHT22;33618;49.972;8.242;2023-06-10T00:11:38;22.60;66.70
47857;DHT22;33618;49.972;8.242;2023-06-10T00:14:06;22.70;66.80
47857;DHT22;33618;49.972;8.242;2023-06-10T00:16:33;22.60;67.00
47857;DHT22;33618;49.972;8.242;2023-06-10T00:19:01;22.60;67.40
47857;DHT22;33618;49.972;8.242;2023-06-10T00:21:34;22.50;67.10
47857;DHT22;33618;49.972;8.242;2023-06-10T00:24:07;22.40;67.40
47857;DHT22;33618;49.972;8.242;2023-06-10T00:26:39;22.30;67.60
47857;DHT22;33618;49.972;8.242;2023-06-10T00:29:07;22.30;67.50
47857;DHT22;33618;49.972;8.242;2023-06-10T00:31:36;22.30;67.60
47857;DHT22;33618;49.972;8.242;2023-06-10T00:34:04;22.30;67.70
47857;DHT22;33618;49.972;8.242;2023-06-10T00:36:31;22.10;67.90
47857;DHT22;33618;49.972;8.242;2023-06-10T00:38:57;22.10;68.00
47857;DHT22;33618;49.972;8.242;2023-06-10T00:41:24;21.90;68.40
47857;DHT22;33618;49.972;8.242;2023-06-10T00:43:53;21.90;68.30
47857;DHT22;33618;49.972;8.242;2023-06-10T00:46:21;21.70;68.80
47857;DHT22;33618;49.972;8.242;2023-06-10T00:48:49;21.70;69.00
47857;DHT22;33618;49.972;8.242;2023-06-10T00:51:16;21.60;69.00
47857;DHT22;33618;49.972;8.242;2023-06-10T00:53:44;21.50;69.70
47857;DHT22;33618;49.972;8.242;2023-06-10T00:56:13;21.50;70.10
47857;DHT22;33618;49.972;8.242;2023-06-10T00:58:40;21.40;69.80
47857;DHT22;33618;49.972;8.242;2023-06-10T01:01:07;21.30;70.00
47857;DHT22;33618;49.972;8.242;2023-06-10T01:03:37;21.30;70.50
47857;DHT22;33618;49.972;8.242;2023-06-10T01:09:02;21.00;71.00
47857;DHT22;33618;49.972;8.242;2023-06-10T01:11:36;21.00;71.60
47857;DHT22;33618;49.972;8.242;2023-06-10T01:14:07;20.90;71.80
47857;DHT22;33618;49.972;8.242;2023-06-10T01:16:36;20.80;72.30
47857;DHT22;33618;49.972;8.242;2023-06-10T01:19:03;20.80;72.20
47857;DHT22;33618;49.972;8.242;2023-06-10T01:21:30;20.70;72.20
47857;DHT22;33618;49.972;8.242;2023-06-10T01:24:01;20.60;72.70
47857;DHT22;33618;49.972;8.242;2023-06-10T01:26:32;20.60;73.60
47857;DHT22;33618;49.972;8.242;2023-06-10T01:29:11;20.60;73.20
47857;DHT22;33618;49.972;8.242;2023-06-10T01:32:06;20.60;73.60
47857;DHT22;33618;49.972;8.242;2023-06-10T01:34:35;20.60;73.80
47857;DHT22;33618;49.972;8.242;2023-06-10T01:37:04;20.50;74.30
47857;DHT22;33618;49.972;8.242;2023-06-10T01:39:32;20.50;73.90
47857;DHT22;33618;49.972;8.242;2023-06-10T01:41:59;20.50;74.60
47857;DHT22;33618;49.972;8.242;2023-06-10T01:44:26;20.40;74.40
47857;DHT22;33618;49.972;8.242;2023-06-10T01:46:53;20.40;74.20
47857;DHT22;33618;49.972;8.242;2023-06-10T01:49:20;20.40;75.00
47857;DHT22;33618;49.972;8.242;2023-06-10T01:51:50;20.40;74.40
47857;DHT22;33618;49.972;8.242;2023-06-10T01:54:17;20.30;75.30
47857;DHT22;33618;49.972;8.242;2023-06-10T01:56:44;20.30;75.60
47857;DHT22;33618;49.972;8.242;2023-06-10T01:59:11;20.20;76.40
47857;DHT22;33618;49.972;8.242;2023-06-10T02:01:38;20.10;75.90
47857;DHT22;33618;49.972;8.242;2023-06-10T02:04:05;20.00;76.90
47857;DHT22;33618;49.972;8.242;2023-06-10T02:06:32;20.00;76.70
47857;DHT22;33618;49.972;8.242;2023-06-10T02:08:59;20.00;77.30
47857;DHT22;33618;49.972;8.242;2023-06-10T02:11:26;19.90;77.50
47857;DHT22;33618;49.972;8.242;2023-06-10T02:13:53;19.80;78.10
47857;DHT22;33618;49.972;8.242;2023-06-10T02:16:20;19.80;78.40
47857;DHT22;33618;49.972;8.242;2023-06-10T02:18:48;19.90;77.80
47857;DHT22;33618;49.972;8.242;2023-06-10T02:21:15;19.70;78.50
47857;DHT22;33618;49.972;8.242;2023-06-10T02:23:42;19.70;79.50
47857;DHT22;33618;49.972;8.242;2023-06-10T02:26:09;19.60;80.40
47857;DHT22;33618;49.972;8.242;2023-06-10T02:28:36;19.60;80.80
47857;DHT22;33618;49.972;8.242;2023-06-10T02:31:03;19.60;81.00
47857;DHT22;33618;49.972;8.242;2023-06-10T02:33:30;19.60;79.80
47857;DHT22;33618;49.972;8.242;2023-06-10T02:35:56;19.60;80.80
47857;DHT22;33618;49.972;8.242;2023-06-10T02:38:23;19.50;80.90
47857;DHT22;33618;49.972;8.242;2023-06-10T02:40:50;19.40;82.00
47857;DHT22;33618;49.972;8.242;2023-06-10T02:43:17;19.40;82.00
47857;DHT22;33618;49.972;8.242;2023-06-10T02:45:44;19.30;83.10
47857;DHT22;33618;49.972;8.242;2023-06-10T02:48:11;19.30;83.00
47857;DHT22;33618;49.972;8.242;2023-06-10T02:50:38;19.30;82.90
47857;DHT22;33618;49.972;8.242;2023-06-10T02:53:06;19.30;83.40
47857;DHT22;33618;49.972;8.242;2023-06-10T02:55:33;19.30;83.60
47857;DHT22;33618;49.972;8.242;2023-06-10T02:58:02;19.30;84.20
47857;DHT22;33618;49.972;8.242;2023-06-10T03:00:29;19.30;84.70
47857;DHT22;33618;49.972;8.242;2023-06-10T03:02:56;19.20;84.50
47857;DHT22;33618;49.972;8.242;2023-06-10T03:05:24;19.20;85.80
47857;DHT22;33618;49.972;8.242;2023-06-10T03:07:51;19.10;86.00
47857;DHT22;33618;49.972;8.242;2023-06-10T03:10:18;19.00;86.40
47857;DHT22;33618;49.972;8.242;2023-06-10T03:12:45;19.00;86.90
47857;DHT22;33618;49.972;8.242;2023-06-10T03:15:12;19.00;87.30
47857;DHT22;33618;49.972;8.242;2023-06-10T03:17:39;18.90;87.20
47857;DHT22;33618;49.972;8.242;2023-06-10T03:20:07;18.90;87.40
47857;DHT22;33618;49.972;8.242;2023-06-10T03:22:36;18.80;87.70
47857;DHT22;33618;49.972;8.242;2023-06-10T03:25:05;18.90;88.80
47857;DHT22;33618;49.972;8.242;2023-06-10T03:27:33;18.80;90.20
47857;DHT22;33618;49.972;8.242;2023-06-10T03:30:00;18.80;89.40
47857;DHT22;33618;49.972;8.242;2023-06-10T03:32:27;18.90;89.90
47857;DHT22;33618;49.972;8.242;2023-06-10T03:34:55;18.90;89.60
47857;DHT22;33618;49.972;8.242;2023-06-10T03:37:27;18.80;89.40
47857;DHT22;33618;49.972;8.242;2023-06-10T03:39:54;18.80;89.30
47857;DHT22;33618;49.972;8.242;2023-06-10T03:42:20;18.80;89.90
47857;DHT22;33618;49.972;8.242;2023-06-10T03:44:47;18.90;89.00
47857;DHT22;33618;49.972;8.242;2023-06-10T03:47:14;18.90;88.90
47857;DHT22;33618;49.972;8.242;2023-06-10T03:49:41;18.80;89.40
47857;DHT22;33618;49.972;8.242;2023-06-10T03:52:08;18.80;89.30
47857;DHT22;33618;49.972;8.242;2023-06-10T03:54:35;18.70;89.10
47857;DHT22;33618;49.972;8.242;2023-06-10T03:57:02;18.70;89.80
47857;DHT22;33618;49.972;8.242;2023-06-10T03:59:29;18.70;89.40
47857;DHT22;33618;49.972;8.242;2023-06-10T04:01:56;18.70;90.00
47857;DHT22;33618;49.972;8.242;2023-06-10T04:04:23;18.80;89.40
47857;DHT22;33618;49.972;8.242;2023-06-10T04:06:51;18.80;89.90
47857;DHT22;33618;49.972;8.242;2023-06-10T04:09:17;18.90;90.30
47857;DHT22;33618;49.972;8.242;2023-06-10T04:11:45;18.80;89.20
47857;DHT22;33618;49.972;8.242;2023-06-10T04:14:12;18.90;90.50
47857;DHT22;33618;49.972;8.242;2023-06-10T04:16:40;18.90;88.90
47857;DHT22;33618;49.972;8.242;2023-06-10T04:19:09;19.00;90.00
47857;DHT22;33618;49.972;8.242;2023-06-10T04:21:36;18.90;90.00
47857;DHT22;33618;49.972;8.242;2023-06-10T04:24:03;19.00;89.80
47857;DHT22;33618;49.972;8.242;2023-06-10T04:26:30;19.00;89.90
47857;DHT22;33618;49.972;8.242;2023-06-10T04:28:57;19.10;90.00
47857;DHT22;33618;49.972;8.242;2023-06-10T04:31:24;19.20;90.40
47857;DHT22;33618;49.972;8.242;2023-06-10T04:33:51;19.30;90.10
47857;DHT22;33618;49.972;8.242;2023-06-10T04:36:18;19.30;91.10
47857;DHT22;33618;49.972;8.242;2023-06-10T04:38:45;19.30;91.10
47857;DHT22;33618;49.972;8.242;2023-06-10T04:41:12;19.30;91.00
47857;DHT22;33618;49.972;8.242;2023-06-10T04:43:39;19.30;91.10
47857;DHT22;33618;49.972;8.242;2023-06-10T04:46:06;19.30;91.40
47857;DHT22;33618;49.972;8.242;2023-06-10T04:48:35;19.30;90.80
47857;DHT22;33618;49.972;8.242;2023-06-10T04:51:02;19.40;89.90
47857;DHT22;33618;49.972;8.242;2023-06-10T04:53:29;19.50;89.10
47857;DHT22;33618;49.972;8.242;2023-06-10T04:55:56;19.50;87.50
47857;DHT22;33618;49.972;8.242;2023-06-10T04:58:24;19.60;88.60
47857;DHT22;33618;49.972;8.242;2023-06-10T05:00:51;19.60;86.70
47857;DHT22;33618;49.972;8.242;2023-06-10T05:03:18;19.70;88.70
47857;DHT22;33618;49.972;8.242;2023-06-10T05:05:44;19.80;86.70
47857;DHT22;33618;49.972;8.242;2023-06-10T05:08:11;19.80;83.90
47857;DHT22;33618;49.972;8.242;2023-06-10T05:10:38;19.90;84.10
47857;DHT22;33618;49.972;8.242;2023-06-10T05:13:05;20.00;82.80
47857;DHT22;33618;49.972;8.242;2023-06-10T05:15:32;20.10;82.10
47857;DHT22;33618;49.972;8.242;2023-06-10T05:17:59;20.20;82.40
47857;DHT22;33618;49.972;8.242;2023-06-10T05:20:26;20.30;81.20
47857;DHT22;33618;49.972;8.242;2023-06-10T05:22:55;20.40;82.80
47857;DHT22;33618;49.972;8.242;2023-06-10T05:25:22;20.60;81.70
47857;DHT22;33618;49.972;8.242;2023-06-10T05:27:49;20.70;79.00
47857;DHT22;33618;49.972;8.242;2023-06-10T05:30:16;20.80;78.80
47857;DHT22;33618;49.972;8.242;2023-06-10T05:32:45;20.80;78.30
47857;DHT22;33618;49.972;8.242;2023-06-10T05:35:12;20.90;77.10
47857;DHT22;33618;49.972;8.242;2023-06-10T05:37:39;21.00;77.20
47857;DHT22;33618;49.972;8.242;2023-06-10T05:40:06;21.10;76.90
47857;DHT22;33618;49.972;8.242;2023-06-10T05:42:33;21.10;76.80
47857;DHT22;33618;49.972;8.242;2023-06-10T05:45:00;21.20;75.90
47857;DHT22;33618;49.972;8.242;2023-06-10T05:47:27;21.30;74.90
47857;DHT22;33618;49.972;8.242;2023-06-10T05:49:54;21.50;75.20
47857;DHT22;33618;49.972;8.242;2023-06-10T05:52:20;21.60;74.50
47857;DHT22;33618;49.972;8.242;2023-06-10T05:54:48;21.80;72.70
47857;DHT22;33618;49.972;8.242;2023-06-10T05:57:15;22.00;73.10
47857;DHT22;33618;49.972;8.242;2023-06-10T05:59:42;22.30;72.40
47857;DHT22;33618;49.972;8.242;2023-06-10T06:02:09;22.40;71.90
47857;DHT22;33618;49.972;8.242;2023-06-10T06:04:36;22.50;71.60
47857;DHT22;33618;49.972;8.242;2023-06-10T06:07:03;22.90;70.60
47857;DHT22;33618;49.972;8.242;2023-06-10T06:09:30;23.00;69.80
47857;DHT22;33618;49.972;8.242;2023-06-10T06:11:57;22.80;70.20
47857;DHT22;33618;49.972;8.242;2023-06-10T06:38:22;23.70;68.10
47857;DHT22;33618;49.972;8.242;2023-06-10T06:40:49;23.90;67.40
47857;DHT22;33618;49.972;8.242;2023-06-10T06:43:16;23.80;67.40
47857;DHT22;33618;49.972;8.242;2023-06-10T06:45:45;23.90;67.70
47857;DHT22;33618;49.972;8.242;2023-06-10T06:48:12;24.10;66.80
47857;DHT22;33618;49.972;8.242;2023-06-10T06:50:39;24.00;67.10
47857;DHT22;33618;49.972;8.242;2023-06-10T06:53:08;23.90;67.10
47857;DHT22;33618;49.972;8.242;2023-06-10T06:55:35;24.00;67.40
47857;DHT22;33618;49.972;8.242;2023-06-10T06:58:02;24.20;66.80
47857;DHT22;33618;49.972;8.242;2023-06-10T07:00:31;24.30;66.40
47857;DHT22;33618;49.972;8.242;2023-06-10T07:02:58;24.30;66.60
47857;DHT22;33618;49.972;8.242;2023-06-10T07:05:25;24.40;66.40
47857;DHT22;33618;49.972;8.242;2023-06-10T07:07:54;24.50;66.10
47857;DHT22;33618;49.972;8.242;2023-06-10T07:10:26;24.40;66.40
47857;DHT22;33618;49.972;8.242;2023-06-10T07:12:53;24.70;65.70
47857;DHT22;33618;49.972;8.242;2023-06-10T07:15:21;24.60;65.60
47857;DHT22;33618;49.972;8.242;2023-06-10T07:17:47;24.60;66.10
47857;DHT22;33618;49.972;8.242;2023-06-10T07:20:14;24.70;66.00
47857;DHT22;33618;49.972;8.242;2023-06-10T07:22:43;24.70;66.10
47857;DHT22;33618;49.972;8.242;2023-06-10T07:25:10;24.80;65.80
47857;DHT22;33618;49.972;8.242;2023-06-10T07:27:37;24.60;66.30
47857;DHT22;33618;49.972;8.242;2023-06-10T07:30:05;24.80;66.00
47857;DHT22;33618;49.972;8.242;2023-06-10T07:32:34;24.90;65.90
47857;DHT22;33618;49.972;8.242;2023-06-10T07:35:01;24.80;66.20
47857;DHT22;33618;49.972;8.242;2023-06-10T07:37:28;24.90;65.40
47857;DHT22;33618;49.972;8.242;2023-06-10T07:39:56;25.10;65.10
47857;DHT22;33618;49.972;8.242;2023-06-10T07:42:23;25.10;65.00
47857;DHT22;33618;49.972;8.242;2023-06-10T07:44:50;25.10;65.10
47857;DHT22;33618;49.972;8.242;2023-06-10T07:47:17;25.10;65.00
47857;DHT22;33618;49.972;8.242;2023-06-10T07:49:44;25.20;65.00
47857;DHT22;33618;49.972;8.242;2023-06-10T07:52:11;25.20;64.80
47857;DHT22;33618;49.972;8.242;2023-06-10T07:54:38;25.30;64.60
47857;DHT22;33618;49.972;8.242;2023-06-10T07:57:05;25.20;64.90
47857;DHT22;33618;49.972;8.242;2023-06-10T07:59:33;25.40;64.70
47857;DHT22;33618;49.972;8.242;2023-06-10T08:02:00;25.50;64.60
47857;DHT22;33618;49.972;8.242;2023-06-10T08:04:27;25.40;64.60
47857;DHT22;33618;49.972;8.242;2023-06-10T08:06:54;25.50;64.90
47857;DHT22;33618;49.972;8.242;2023-06-10T08:09:23;25.60;64.50
47857;DHT22;33618;49.972;8.242;2023-06-10T08:11:50;25.60;64.50
47857;DHT22;33618;49.972;8.242;2023-06-10T08:14:16;25.60;64.40
47857;DHT22;33618;49.972;8.242;2023-06-10T08:16:44;25.70;64.30
47857;DHT22;33618;49.972;8.242;2023-06-10T08:19:11;25.70;64.30
47857;DHT22;33618;49.972;8.242;2023-06-10T08:21:38;25.70;64.20
47857;DHT22;33618;49.972;8.242;2023-06-10T08:24:07;25.80;64.00
47857;DHT22;33618;49.972;8.242;2023-06-10T08:26:34;25.80;64.20
47857;DHT22;33618;49.972;8.242;2023-06-10T08:29:01;25.90;64.00
47857;DHT22;33618;49.972;8.242;2023-06-10T08:31:28;25.90;64.40
47857;DHT22;33618;49.972;8.242;2023-06-10T08:33:55;25.90;64.50
47857;DHT22;33618;49.972;8.242;2023-06-10T08:36:22;25.90;64.10
47857;DHT22;33618;49.972;8.242;2023-06-10T08:38:49;26.00;63.70
47857;DHT22;33618;49.972;8.242;2023-06-10T08:41:17;26.00;63.90
47857;DHT22;33618;49.972;8.242;2023-06-10T08:43:48;26.10;64.00
47857;DHT22;33618;49.972;8.242;2023-06-10T08:46:18;26.20;64.10
47857;DHT22;33618;49.972;8.242;2023-06-10T08:48:46;26.20;63.80
47857;DHT22;33618;49.972;8.242;2023-06-10T08:51:17;26.30;64.30
47857;DHT22;33618;49.972;8.242;2023-06-10T08:53:56;26.30;63.70
47857;DHT22;33618;49.972;8.242;2023-06-10T08:56:28;26.30;63.70
47857;DHT22;33618;49.972;8.242;2023-06-10T08:58:57;26.40;63.90
47857;DHT22;33618;49.972;8.242;2023-06-10T09:01:26;26.40;64.00
47857;DHT22;33618;49.972;8.242;2023-06-10T09:03:53;26.50;63.90
47857;DHT22;33618;49.972;8.242;2023-06-10T09:06:22;26.40;63.90
47857;DHT22;33618;49.972;8.242;2023-06-10T09:08:50;26.50;64.10
47857;DHT22;33618;49.972;8.242;2023-06-10T09:11:17;26.40;63.90
47857;DHT22;33618;49.972;8.242;2023-06-10T09:13:44;26.40;63.90
47857;DHT22;33618;49.972;8.242;2023-06-10T09:16:11;26.50;63.90
47857;DHT22;33618;49.972;8.242;2023-06-10T09:18:39;26.70;63.80
47857;DHT22;33618;49.972;8.242;2023-06-10T09:21:06;26.80;63.60
47857;DHT22;33618;49.972;8.242;2023-06-10T09:23:34;26.90;63.30
47857;DHT22;33618;49.972;8.242;2023-06-10T09:26:02;27.20;63.20
47857;DHT22;33618;49.972;8.242;2023-06-10T09:28:36;27.80;62.60
47857;DHT22;33618;49.972;8.242;2023-06-10T09:31:04;28.30;61.90
47857;DHT22;33618;49.972;8.242;2023-06-10T09:33:32;28.60;61.60
47857;DHT22;33618;49.972;8.242;2023-06-10T09:36:01;29.40;60.90
47857;DHT22;33618;49.972;8.242;2023-06-10T09:38:34;30.10;60.50
47857;DHT22;33618;49.972;8.242;2023-06-10T09:41:03;30.80;60.00
47857;DHT22;33618;49.972;8.242;2023-06-10T09:43:40;31.50;59.40
47857;DHT22;33618;49.972;8.242;2023-06-10T09:46:17;32.00;58.80
47857;DHT22;33618;49.972;8.242;2023-06-10T09:48:46;32.50;58.60
47857;DHT22;33618;49.972;8.242;2023-06-10T09:51:14;32.90;58.30
47857;DHT22;33618;49.972;8.242;2023-06-10T09:53:51;33.40;57.80
47857;DHT22;33618;49.972;8.242;2023-06-10T09:56:33;33.50;57.10
47857;DHT22;33618;49.972;8.242;2023-06-10T09:59:01;33.80;56.80
47857;DHT22;33618;49.972;8.242;2023-06-10T10:01:30;33.80;56.30
47857;DHT22;33618;49.972;8.242;2023-06-10T10:03:58;33.90;56.30
47857;DHT22;33618;49.972;8.242;2023-06-10T10:06:25;33.90;56.00
47857;DHT22;33618;49.972;8.242;2023-06-10T10:08:52;33.80;56.30
47857;DHT22;33618;49.972;8.242;2023-06-10T10:11:21;34.20;55.60
47857;DHT22;33618;49.972;8.242;2023-06-10T10:13:53;34.60;55.40
47857;DHT22;33618;49.972;8.242;2023-06-10T10:16:21;34.50;55.30
47857;DHT22;33618;49.972;8.242;2023-06-10T10:18:55;34.40;55.10
47857;DHT22;33618;49.972;8.242;2023-06-10T10:21:26;34.10;55.20
47857;DHT22;33618;49.972;8.242;2023-06-10T10:23:59;34.30;55.00
47857;DHT22;33618;49.972;8.242;2023-06-10T10:26:27;34.00;54.90
47857;DHT22;33618;49.972;8.242;2023-06-10T10:29:11;33.90;54.90
47857;DHT22;33618;49.972;8.242;2023-06-10T10:31:42;33.70;55.10
47857;DHT22;33618;49.972;8.242;2023-06-10T10:34:16;33.50;55.00
47857;DHT22;33618;49.972;8.242;2023-06-10T10:36:45;33.80;55.40
47857;DHT22;33618;49.972;8.242;2023-06-10T10:39:13;34.20;55.00
47857;DHT22;33618;49.972;8.242;2023-06-10T10:41:40;34.50;54.40
47857;DHT22;33618;49.972;8.242;2023-06-10T10:44:08;34.20;54.60
47857;DHT22;33618;49.972;8.242;2023-06-10T10:46:44;34.40;54.80
47857;DHT22;33618;49.972;8.242;2023-06-10T10:49:13;34.80;54.70
47857;DHT22;33618;49.972;8.242;2023-06-10T10:51:56;34.90;54.20
47857;DHT22;33618;49.972;8.242;2023-06-10T10:54:35;34.70;54.50
47857;DHT22;33618;49.972;8.242;2023-06-10T10:57:23;34.10;54.60
47857;DHT22;33618;49.972;8.242;2023-06-10T10:59:56;34.50;54.20
47857;DHT22;33618;49.972;8.242;2023-06-10T11:02:34;34.80;54.00
47857;DHT22;33618;49.972;8.242;2023-06-10T11:05:02;34.90;54.60
47857;DHT22;33618;49.972;8.242;2023-06-10T11:07:31;34.90;54.50
47857;DHT22;33618;49.972;8.242;2023-06-10T11:10:06;34.90;54.10
47857;DHT22;33618;49.972;8.242;2023-06-10T11:15:13;35.00;54.30
47857;DHT22;33618;49.972;8.242;2023-06-10T11:23:33;34.00;54.30
47857;DHT22;33618;49.972;8.242;2023-06-10T11:29:04;34.00;53.90
47857;DHT22;33618;49.972;8.242;2023-06-10T11:31:42;34.30;53.80
47857;DHT22;33618;49.972;8.242;2023-06-10T11:34:10;34.70;54.20
47857;DHT22;33618;49.972;8.242;2023-06-10T11:36:40;34.90;53.60
47857;DHT22;33618;49.972;8.242;2023-06-10T11:39:09;35.00;54.20
47857;DHT22;33618;49.972;8.242;2023-06-10T11:41:38;35.10;53.70
47857;DHT22;33618;49.972;8.242;2023-06-10T11:44:12;34.70;53.80
47857;DHT22;33618;49.972;8.242;2023-06-10T11:46:47;34.40;53.90
47857;DHT22;33618;49.972;8.242;2023-06-10T11:49:14;34.30;54.20
47857;DHT22;33618;49.972;8.242;2023-06-10T11:51:41;34.40;53.90
47857;DHT22;33618;49.972;8.242;2023-06-10T11:54:16;34.40;54.10
47857;DHT22;33618;49.972;8.242;2023-06-10T11:56:43;34.90;54.00
47857;DHT22;33618;49.972;8.242;2023-06-10T11:59:10;35.00;53.50
47857;DHT22;33618;49.972;8.242;2023-06-10T12:01:42;34.90;53.80
47857;DHT22;33618;49.972;8.242;2023-06-10T12:04:13;35.00;53.60
47857;DHT22;33618;49.972;8.242;2023-06-10T12:06:49;34.50;54.10
47857;DHT22;33618;49.972;8.242;2023-06-10T12:09:21;34.20;54.10
47857;DHT22;33618;49.972;8.242;2023-06-10T12:12:00;34.10;53.90
47857;DHT22;33618;49.972;8.242;2023-06-10T12:14:51;34.40;53.60
47857;DHT22;33618;49.972;8.242;2023-06-10T12:20:23;35.40;53.10
47857;DHT22;33618;49.972;8.242;2023-06-10T12:22:56;35.50;52.80
47857;DHT22;33618;49.972;8.242;2023-06-10T12:25:28;35.80;53.10
47857;DHT22;33618;49.972;8.242;2023-06-10T12:27:58;35.50;52.90
47857;DHT22;33618;49.972;8.242;2023-06-10T12:30:26;35.10;52.80
47857;DHT22;33618;49.972;8.242;2023-06-10T12:32:54;35.20;52.60
47857;DHT22;33618;49.972;8.242;2023-06-10T12:35:27;35.50;52.60
47857;DHT22;33618;49.972;8.242;2023-06-10T12:38:00;35.70;52.30
47857;DHT22;33618;49.972;8.242;2023-06-10T12:40:34;35.80;52.10
47857;DHT22;33618;49.972;8.242;2023-06-10T12:43:03;35.60;52.00
47857;DHT22;33618;49.972;8.242;2023-06-10T12:45:34;35.00;51.90
47857;DHT22;33618;49.972;8.242;2023-06-10T12:50:40;33.90;52.30
47857;DHT22;33618;49.972;8.242;2023-06-10T12:53:08;33.90;52.40
47857;DHT22;33618;49.972;8.242;2023-06-10T12:55:35;34.10;52.20
47857;DHT22;33618;49.972;8.242;2023-06-10T12:58:03;34.60;51.90
47857;DHT22;33618;49.972;8.242;2023-06-10T13:00:30;34.80;52.00
47857;DHT22;33618;49.972;8.242;2023-06-10T13:02:59;34.50;52.30
47857;DHT22;33618;49.972;8.242;2023-06-10T13:05:33;34.40;52.10
47857;DHT22;33618;49.972;8.242;2023-06-10T13:08:01;34.70;51.90
47857;DHT22;33618;49.972;8.242;2023-06-10T13:10:28;34.40;51.70
47857;DHT22;33618;49.972;8.242;2023-06-10T13:12:55;34.20;51.80
47857;DHT22;33618;49.972;8.242;2023-06-10T13:15:23;34.40;51.80
47857;DHT22;33618;49.972;8.242;2023-06-10T13:17:53;34.70;51.50
47857;DHT22;33618;49.972;8.242;2023-06-10T13:20:20;35.40;51.30
47857;DHT22;33618;49.972;8.242;2023-06-10T13:22:47;35.90;51.10
47857;DHT22;33618;49.972;8.242;2023-06-10T13:25:15;35.50;50.90
47857;DHT22;33618;49.972;8.242;2023-06-10T13:27:42;34.80;51.00
47857;DHT22;33618;49.972;8.242;2023-06-10T13:30:13;34.30;51.30
47857;DHT22;33618;49.972;8.242;2023-06-10T13:32:39;33.80;51.30
47857;DHT22;33618;49.972;8.242;2023-06-10T13:35:07;34.00;51.40
47857;DHT22;33618;49.972;8.242;2023-06-10T13:37:35;34.40;51.50
47857;DHT22;33618;49.972;8.242;2023-06-10T13:40:03;35.00;51.60
47857;DHT22;33618;49.972;8.242;2023-06-10T13:42:33;35.20;51.40
47857;DHT22;33618;49.972;8.242;2023-06-10T13:45:03;35.00;51.30
47857;DHT22;33618;49.972;8.242;2023-06-10T13:47:30;34.80;51.50
47857;DHT22;33618;49.972;8.242;2023-06-10T13:50:04;34.80;51.30
47857;DHT22;33618;49.972;8.242;2023-06-10T13:52:32;34.80;51.40
47857;DHT22;33618;49.972;8.242;2023-06-10T13:54:59;35.10;51.60
47857;DHT22;33618;49.972;8.242;2023-06-10T13:57:25;35.70;51.10
47857;DHT22;33618;49.972;8.242;2023-06-10T13:59:54;35.90;51.30
47857;DHT22;33618;49.972;8.242;2023-06-10T14:02:24;36.00;50.80
47857;DHT22;33618;49.972;8.242;2023-06-10T14:04:51;36.00;51.50
47857;DHT22;33618;49.972;8.242;2023-06-10T14:07:18;36.20;51.00
47857;DHT22;33618;49.972;8.242;2023-06-10T14:09:46;36.10;50.90
47857;DHT22;33618;49.972;8.242;2023-06-10T14:12:17;36.30;50.80
47857;DHT22;33618;49.972;8.242;2023-06-10T14:14:43;36.30;50.60
47857;DHT22;33618;49.972;8.242;2023-06-10T14:17:10;36.40;50.50
47857;DHT22;33618;49.972;8.242;2023-06-10T14:19:37;36.60;50.20
47857;DHT22;33618;49.972;8.242;2023-06-10T14:22:04;36.50;50.20
47857;DHT22;33618;49.972;8.242;2023-06-10T14:24:34;36.70;50.00
47857;DHT22;33618;49.972;8.242;2023-06-10T14:27:02;36.40;50.10
47857;DHT22;33618;49.972;8.242;2023-06-10T14:29:29;36.80;50.40
47857;DHT22;33618;49.972;8.242;2023-06-10T14:31:58;36.60;50.10
47857;DHT22;33618;49.972;8.242;2023-06-10T14:34:25;36.10;50.20
47857;DHT22;33618;49.972;8.242;2023-06-10T14:36:56;35.90;50.40
47857;DHT22;33618;49.972;8.242;2023-06-10T14:39:23;36.10;50.50
47857;DHT22;33618;49.972;8.242;2023-06-10T14:41:50;36.40;50.20
47857;DHT22;33618;49.972;8.242;2023-06-10T14:44:19;36.60;50.20
47857;DHT22;33618;49.972;8.242;2023-06-10T14:46:46;36.20;50.20
47857;DHT22;33618;49.972;8.242;2023-06-10T14:49:13;35.70;50.40
47857;DHT22;33618;49.972;8.242;2023-06-10T14:51:40;34.90;50.70
47857;DHT22;33618;49.972;8.242;2023-06-10T14:54:06;34.30;50.80
47857;DHT22;33618;49.972;8.242;2023-06-10T14:56:33;34.20;51.00
47857;DHT22;33618;49.972;8.242;2023-06-10T14:59:00;34.00;51.20
47857;DHT22;33618;49.972;8.242;2023-06-10T15:01:28;33.60;51.30
47857;DHT22;33618;49.972;8.242;2023-06-10T15:03:54;33.20;51.60
47857;DHT22;33618;49.972;8.242;2023-06-10T15:06:21;33.10;51.90
47857;DHT22;33618;49.972;8.242;2023-06-10T15:08:49;32.80;51.80
47857;DHT22;33618;49.972;8.242;2023-06-10T15:11:16;33.20;51.80
47857;DHT22;33618;49.972;8.242;2023-06-10T15:13:43;33.80;51.80
47857;DHT22;33618;49.972;8.242;2023-06-10T15:16:10;34.10;51.40
47857;DHT22;33618;49.972;8.242;2023-06-10T15:18:37;34.30;51.50
47857;DHT22;33618;49.972;8.242;2023-06-10T15:21:04;34.30;51.00
47857;DHT22;33618;49.972;8.242;2023-06-10T15:23:32;34.40;51.20
47857;DHT22;33618;49.972;8.242;2023-06-10T15:25:59;34.40;50.80
47857;DHT22;33618;49.972;8.242;2023-06-10T15:28:26;33.90;51.00
47857;DHT22;33618;49.972;8.242;2023-06-10T15:30:54;34.10;51.40
47857;DHT22;33618;49.972;8.242;2023-06-10T15:33:21;34.40;51.00
47857;DHT22;33618;49.972;8.242;2023-06-10T15:35:48;34.90;50.70
47857;DHT22;33618;49.972;8.242;2023-06-10T15:38:14;35.10;50.70
47857;DHT22;33618;49.972;8.242;2023-06-10T15:40:41;35.10;50.60
47857;DHT22;33618;49.972;8.242;2023-06-10T15:43:08;35.20;50.40
47857;DHT22;33618;49.972;8.242;2023-06-10T15:45:35;35.10;50.50
47857;DHT22;33618;49.972;8.242;2023-06-10T15:48:02;35.10;50.70
47857;DHT22;33618;49.972;8.242;2023-06-10T15:50:29;35.70;50.70
47857;DHT22;33618;49.972;8.242;2023-06-10T15:52:56;35.90;50.50
47857;DHT22;33618;49.972;8.242;2023-06-10T15:55:23;35.80;50.60
47857;DHT22;33618;49.972;8.242;2023-06-10T15:57:50;35.60;50.50
47857;DHT22;33618;49.972;8.242;2023-06-10T16:00:17;35.60;50.30
47857;DHT22;33618;49.972;8.242;2023-06-10T16:02:44;35.80;50.40
47857;DHT22;33618;49.972;8.242;2023-06-10T16:05:11;35.50;50.40
47857;DHT22;33618;49.972;8.242;2023-06-10T16:07:38;35.20;50.60
47857;DHT22;33618;49.972;8.242;2023-06-10T16:10:07;35.30;50.50
47857;DHT22;33618;49.972;8.242;2023-06-10T16:12:34;35.30;50.40
47857;DHT22;33618;49.972;8.242;2023-06-10T16:15:00;35.50;50.40
47857;DHT22;33618;49.972;8.242;2023-06-10T16:17:27;35.30;50.60
47857;DHT22;33618;49.972;8.242;2023-06-10T16:19:54;35.40;50.50
47857;DHT22;33618;49.972;8.242;2023-06-10T16:22:21;35.40;50.70